METAR stanice u blizini

 

LYBE - Beograd / Surčin, Srbija
Ažurirano: 18/05/2024 22:00
Vedro
Vedro
 Pravac vetra I
Vetar: I 11 km/h
Temperatura: 21°C
Tačka rose: 11°C
Vlažnost: 53%
Pritisak: 1013 hPa
Pregled: Vedro
Vidljivost: greater than 10 km
2024/05/18 20:00 LYBE 182000Z 09006KT CAVOK 21/11 Q1013 NOSIG
LYBT - Beograd / Batajnica, Srbija
Ažurirano: 18/05/2024 22:00
Vedro
Vedro
 Pravac vetra varies
Vetar: varies 4 km/h
Temperatura: 19°C
Tačka rose: 12°C
Vlažnost: 64%
Pritisak: 1013 hPa
Pregled: Vedro
Vidljivost: greater than 10 km
2024/05/18 20:00 LYBT 182000Z VRB02KT CAVOK 19/12 Q1013 NOSIG
LYVR - Vršac, Srbija
Ažurirano: 18/05/2024 22:00
Vedro
Vedro
 Pravac vetra JI
Vetar: JI 20 km/h
Temperatura: 22°C
Tačka rose: 11°C
Vlažnost: 50%
Pritisak: 1013 hPa
Pregled: Vedro
Vidljivost: greater than 10 km
2024/05/18 20:00 LYVR 182000Z AUTO 13011KT CAVOK 22/11 Q1013
 
LYKV - Lađevci, Srbija
Ažurirano: 18/05/2024 22:00
Vedro
Vedro
 Pravac vetra JI
Vetar: JI 4 km/h
Temperatura: 19°C
Tačka rose: 13°C
Vlažnost: 68%
Pritisak: 1013 hPa
Pregled: Vedro
Vidljivost: greater than 10 km
2024/05/18 20:00 LYKV 182000Z 13002KT CAVOK 19/13 Q1013 NOSIG
LYNI - Niš, Srbija
Ažurirano: 18/05/2024 22:00
Vedro
Vedro
 Pravac vetra varies
Vetar: varies 2 km/h
Temperatura: 21°C
Tačka rose: 13°C
Vlažnost: 60%
Pritisak: 1013 hPa
Pregled: Vedro
Vidljivost: greater than 10 km
2024/05/18 20:00 LYNI 182000Z VRB01KT CAVOK 21/13 Q1013 NOSIG
BKPR - Priština, Srbija
Ažurirano: 18/05/2024 22:00
Vedro
Vedro
 Pravac vetra varies
Vetar: varies 4 km/h
Temperatura: 20°C
Tačka rose: 14°C
Vlažnost: 69%
Pritisak: 1014 hPa
Pregled: Vedro
Vidljivost: greater than 10 km
2024/05/18 20:00 BKPR 182000Z VRB02KT CAVOK 20/14 Q1014 NOSIG
 
LHPP - Pecs / Pogany, Hungary
Ažurirano: 18/05/2024 21:45
Vedro
Vedro
 Pravac vetra IJI
Vetar: IJI 7 km/h
Temperatura: 20°C
Tačka rose: 11°C
Vlažnost: 56%
Pritisak: 1013 hPa
Pregled: Vedro
Vidljivost: greater than 10 km
2024/05/18 19:45 LHPP 181945Z AUTO 11004KT CAVOK 20/11 Q1013
LHUD - Szeged, Hungary
Ažurirano: 04/07/2019 01:45
NOT Current
Vedro
Vedro
 Pravac vetra S
Vetar: S 7 km/h
Temperatura: 18°C
Tačka rose: 13°C
Vlažnost: 73%
Pritisak: 1019 hPa
Pregled: Vedro
Vidljivost: greater than 10 km
2019/07/03 23:45 LHUD 032345Z 35004KT CAVOK 18/13 Q1019
LRTR - Timisoara, Romania
Ažurirano: 18/05/2024 22:00
Vedro
Vedro
 Pravac vetra ISI
Vetar: ISI 13 km/h
Temperatura: 14°C
Tačka rose: 11°C
Vlažnost: 82%
Pritisak: 1013 hPa
Pregled: Vedro
Vidljivost: greater than 10 km
2024/05/18 20:00 LRTR 182000Z 07007KT CAVOK 14/11 Q1013 NOSIG
 
LRCV - Craiova, Romania
Ažurirano: 18/05/2024 22:00
Vedro
Vedro
 Pravac vetra SI
Vetar: SI 7 km/h
Temperatura: 15°C
Tačka rose: 11°C
Vlažnost: 77%
Pritisak: 1015 hPa
Pregled: Vedro
Vidljivost: greater than 10 km
2024/05/18 20:00 LRCV 182000Z 04004KT CAVOK 15/11 Q1015
LBSF - Sofia, Bulgaria
Ažurirano: 18/05/2024 22:00
Vedro
Vedro
 Pravac vetra I
Vetar: I 17 km/h
Temperatura: 16°C
Tačka rose: 14°C
Vlažnost: 88%
Pritisak: 1016 hPa
Oblaci: Vedro
Vidljivost: 10 km
2024/05/18 20:00 LBSF 182000Z AUTO 10009KT 9999 NCD 16/14 Q1016 NOSIG
LWSK - Skoplje, Makedonija
Ažurirano: 18/05/2024 21:50
Nearby thunderstorm, Pretežno oblačno
Nearby thunderstorm, Pretežno oblačno
 Pravac vetra I
Vetar: I 7 km/h
Temperatura: 22°C
Tačka rose: 16°C
Vlažnost: 69%
Pritisak: 1013 hPa
Pregled: Nearby Thunderstorm
Oblaci: Mostly Cloudy
Vidljivost: 10 km
Cloud details: Few Clouds 914 m
Partly Cloudy 1219 m
Mostly Cloudy 3048 m
2024/05/18 19:50 LWSK 181950Z 10004KT 040V140 9999 VCTS FEW030CB SCT040 BKN100 22/16 Q1013 TEMPO VRB15G25KT 5000 TSRA SCT033CB BKN050
 
LYPG - Podgorica, Crna Gora
Ažurirano: 18/05/2024 22:00
Slaba kiša, Pretežno oblačno
Slaba kiša, Pretežno oblačno
 Pravac vetra IJI
Vetar: IJI 7 km/h
Temperatura: 20°C
Tačka rose: 18°C
Vlažnost: 88%
Pritisak: 1014 hPa
Pregled: Light Rain
Oblaci: Mostly Cloudy
Vidljivost: 10 km
Cloud details: Few Clouds 914 m
Partly Cloudy 1219 m
Mostly Cloudy 2438 m
2024/05/18 20:00 LYPG 182000Z 12004KT 9999 -RA FEW030 SCT040 BKN080 20/18 Q1014 TEMPO 5000 SHRA FEW030TCU BKN040
LQSA - Sarajevo, Bosna i Hercegovina
Ažurirano: 18/05/2024 22:00
Vedro
Vedro
 Pravac vetra varies
Vetar: varies 2 km/h
Temperatura: 18°C
Tačka rose: 11°C
Vlažnost: 64%
Pritisak: 1014 hPa
Pregled: Vedro
Vidljivost: greater than 10 km
2024/05/18 20:00 LQSA 182000Z VRB01KT CAVOK 18/11 Q1014 NOSIG
LDOS - Osijek, Hrvatksa
Ažurirano: 18/05/2024 22:00
Vedro
Vedro
 Pravac vetra JJI
Vetar: JJI 7 km/h
Temperatura: 20°C
Tačka rose: 11°C
Vlažnost: 56%
Pritisak: 1012 hPa
Pregled: Vedro
Vidljivost: greater than 10 km
2024/05/18 20:00 LDOS 182000Z 15004KT CAVOK 20/11 Q1012